createdAt,value
2023-04-02T00:02:26.146Z,1.65
2023-04-02T00:05:19.392Z,4.07
2023-04-02T00:07:52.694Z,1.88
2023-04-02T00:10:32.891Z,1.42
2023-04-02T00:13:06.696Z,1.63
2023-04-02T00:15:41.338Z,2.22
2023-04-02T00:18:16.217Z,2.08
2023-04-02T00:23:21.310Z,2.08
2023-04-02T00:25:53.956Z,1.58
2023-04-02T00:28:27.062Z,1.30
2023-04-02T00:31:02.289Z,2.07
2023-04-02T00:33:35.697Z,1.80
2023-04-02T00:36:09.741Z,1.58
2023-04-02T00:38:44.119Z,5.70
2023-04-02T00:41:18.211Z,2.38
2023-04-02T00:43:51.640Z,2.10
2023-04-02T00:46:30.087Z,1.95
2023-04-02T00:49:07.934Z,1.77
2023-04-02T00:51:42.734Z,2.05
2023-04-02T00:54:19.097Z,1.92
2023-04-02T00:56:53.444Z,3.20
2023-04-02T00:59:28.328Z,2.75
2023-04-02T01:04:37.448Z,1.80
2023-04-02T01:07:12.117Z,2.22
2023-04-02T01:09:56.405Z,1.83
2023-04-02T01:12:38.611Z,2.13
2023-04-02T01:15:14.197Z,1.88
2023-04-02T01:18:00.822Z,1.92
2023-04-02T01:20:59.203Z,1.98
2023-04-02T01:23:35.359Z,2.47
2023-04-02T01:26:11.263Z,3.13
2023-04-02T01:28:59.907Z,1.50
2023-04-02T01:31:33.165Z,2.35
2023-04-02T01:34:07.653Z,2.28
2023-04-02T01:36:44.716Z,1.67
2023-04-02T01:39:22.812Z,1.73
2023-04-02T01:42:00.282Z,2.20
2023-04-02T01:44:37.273Z,2.72
2023-04-02T01:47:11.616Z,2.33
2023-04-02T01:49:44.829Z,2.95
2023-04-02T01:52:19.130Z,1.90
2023-04-02T01:54:52.722Z,2.28
2023-04-02T01:57:25.596Z,1.73
2023-04-02T02:00:00.248Z,1.52
2023-04-02T02:02:33.044Z,1.80
2023-04-02T02:05:06.221Z,1.92
2023-04-02T02:07:39.183Z,1.60
2023-04-02T02:10:15.178Z,1.80
2023-04-02T02:12:48.630Z,1.33
2023-04-02T02:15:23.938Z,1.85
2023-04-02T02:17:58.339Z,2.10
2023-04-02T02:20:31.470Z,1.88
2023-04-02T02:23:05.381Z,1.80
2023-04-02T02:25:38.349Z,1.48
2023-04-02T02:28:15.897Z,3.10
2023-04-02T02:30:50.795Z,2.35
2023-04-02T02:33:26.052Z,3.25
2023-04-02T02:36:05.130Z,4.30
2023-04-02T02:38:45.786Z,3.20
2023-04-02T02:41:27.221Z,5.20
2023-04-02T02:44:03.803Z,3.13
2023-04-02T02:46:39.100Z,4.95
2023-04-02T02:49:16.061Z,3.40
2023-04-02T02:51:52.156Z,2.95
2023-04-02T02:54:39.918Z,2.72
2023-04-02T02:57:23.692Z,2.72
2023-04-02T02:59:58.583Z,3.08
2023-04-02T03:02:33.856Z,4.07
2023-04-02T03:05:07.574Z,2.95
2023-04-02T03:07:40.890Z,2.90
2023-04-02T03:10:16.115Z,4.90
2023-04-02T03:12:52.613Z,4.10
2023-04-02T03:15:33.065Z,2.83
2023-04-02T03:18:12.024Z,4.28
2023-04-02T03:20:47.771Z,4.25
2023-04-02T03:23:23.206Z,3.13
2023-04-02T03:28:31.510Z,3.58
2023-04-02T03:31:06.877Z,5.05
2023-04-02T03:33:43.353Z,4.47
2023-04-02T03:36:19.724Z,5.90
2023-04-02T03:38:55.064Z,4.55
2023-04-02T03:41:30.840Z,7.30
2023-04-02T03:44:07.554Z,6.07
2023-04-02T03:46:41.780Z,6.55
2023-04-02T03:49:20.685Z,5.45
2023-04-02T03:51:55.702Z,5.03
2023-04-02T03:54:29.049Z,5.75
2023-04-02T03:57:02.010Z,6.97
2023-04-02T03:59:38.635Z,6.65
2023-04-02T04:02:16.632Z,4.57
2023-04-02T04:04:51.987Z,4.55
2023-04-02T04:07:29.841Z,7.27
2023-04-02T04:10:03.029Z,7.60
2023-04-02T04:12:40.286Z,6.45
2023-04-02T04:15:18.031Z,4.70
2023-04-02T04:18:02.011Z,7.10
2023-04-02T04:20:45.927Z,5.78
2023-04-02T04:23:30.331Z,8.20
2023-04-02T04:26:10.366Z,8.60
2023-04-02T04:28:50.220Z,5.18
2023-04-02T04:31:26.069Z,8.45
2023-04-02T04:34:05.153Z,7.93
2023-04-02T04:36:47.900Z,8.05
2023-04-02T04:39:23.829Z,6.43
2023-04-02T04:41:58.199Z,7.53
2023-04-02T04:44:37.020Z,8.25
2023-04-02T04:47:13.495Z,5.82
2023-04-02T04:49:48.568Z,6.10
2023-04-02T04:52:25.753Z,6.40
2023-04-02T04:54:58.550Z,6.85
2023-04-02T05:00:12.898Z,5.13
2023-04-02T05:02:48.097Z,7.82
2023-04-02T05:05:25.155Z,6.30
2023-04-02T05:08:02.068Z,6.13
2023-04-02T05:10:38.357Z,8.25
2023-04-02T05:13:15.030Z,4.25
2023-04-02T05:15:51.419Z,6.45
2023-04-02T05:18:28.280Z,7.15
2023-04-02T05:21:06.498Z,5.68
2023-04-02T05:23:45.688Z,5.88
2023-04-02T05:26:22.785Z,5.38
2023-04-02T05:28:58.596Z,4.97
2023-04-02T05:31:37.582Z,4.53
2023-04-02T05:34:12.213Z,4.43
2023-04-02T05:36:47.089Z,7.25
2023-04-02T05:39:23.626Z,5.03
2023-04-02T05:42:02.543Z,6.20
2023-04-02T05:47:25.948Z,6.20
2023-04-02T05:50:07.685Z,5.10
2023-04-02T05:52:47.060Z,5.88
2023-04-02T05:55:29.845Z,7.13
2023-04-02T05:58:33.991Z,4.97
2023-04-02T06:01:03.606Z,6.88
2023-04-02T06:03:39.783Z,6.95
2023-04-02T06:06:16.407Z,5.05
2023-04-02T06:08:52.901Z,6.28
2023-04-02T06:11:30.103Z,6.13
2023-04-02T06:14:04.458Z,6.47
2023-04-02T06:16:38.361Z,5.47
2023-04-02T06:19:16.059Z,9.25
2023-04-02T06:21:50.706Z,4.43
2023-04-02T06:24:27.152Z,4.47
2023-04-02T06:27:05.783Z,6.25
2023-04-02T06:29:40.719Z,7.97
2023-04-02T06:32:17.798Z,4.97
2023-04-02T06:34:50.960Z,5.35
2023-04-02T06:37:27.661Z,3.88
2023-04-02T06:40:29.332Z,4.88
2023-04-02T06:43:08.437Z,4.40
2023-04-02T06:46:02.969Z,3.65
2023-04-02T06:49:06.088Z,4.40
2023-04-02T06:51:39.747Z,6.20
2023-04-02T06:54:18.270Z,4.60
2023-04-02T06:56:56.147Z,4.43
2023-04-02T06:59:40.557Z,5.53
2023-04-02T07:02:31.911Z,6.15
2023-04-02T07:05:08.953Z,5.57
2023-04-02T07:07:43.942Z,5.75
2023-04-02T07:10:20.112Z,3.65
2023-04-02T07:12:53.990Z,4.35
2023-04-02T07:15:30.054Z,5.28
2023-04-02T07:18:04.247Z,4.90
2023-04-02T07:20:38.019Z,5.90
2023-04-02T07:23:16.520Z,5.82
2023-04-02T07:28:23.169Z,3.50
2023-04-02T07:30:57.433Z,5.72
2023-04-02T07:33:31.204Z,3.23
2023-04-02T07:36:03.975Z,5.25
2023-04-02T07:38:37.355Z,5.55
2023-04-02T07:41:11.103Z,4.80
2023-04-02T07:43:45.511Z,6.10
2023-04-02T07:46:21.017Z,3.05
2023-04-02T07:48:54.789Z,4.85
2023-04-02T07:51:29.121Z,3.22
2023-04-02T07:54:03.661Z,6.37
2023-04-02T07:56:37.674Z,3.58
2023-04-02T07:59:11.774Z,4.18
2023-04-02T08:01:46.732Z,2.95
2023-04-02T08:04:20.911Z,2.63
2023-04-02T08:06:54.872Z,4.10
2023-04-02T08:09:28.788Z,7.43
2023-04-02T08:12:02.346Z,4.40
2023-04-02T08:14:36.151Z,4.40
2023-04-02T08:17:11.144Z,2.90
2023-04-02T08:22:29.566Z,4.30
2023-04-02T08:25:03.514Z,3.83
2023-04-02T08:27:36.964Z,6.82
2023-04-02T08:30:11.205Z,5.00
2023-04-02T08:32:46.640Z,5.95
2023-04-02T08:35:20.732Z,1.83
2023-04-02T08:37:54.304Z,2.57
2023-04-02T08:40:30.120Z,1.80
2023-04-02T08:43:07.577Z,4.78
2023-04-02T08:45:48.082Z,3.92
2023-04-02T08:48:24.252Z,3.00
2023-04-02T08:50:58.972Z,5.95
2023-04-02T08:53:35.275Z,5.03
2023-04-02T08:56:19.527Z,5.53
2023-04-02T08:58:56.230Z,5.55
2023-04-02T09:01:35.752Z,2.28
2023-04-02T09:04:16.264Z,3.53
2023-04-02T09:06:51.789Z,4.70
2023-04-02T09:09:26.614Z,4.25
2023-04-02T09:12:03.482Z,3.22
2023-04-02T09:14:42.572Z,3.63
2023-04-02T09:17:19.115Z,5.90
2023-04-02T09:19:57.666Z,4.18
2023-04-02T09:22:31.957Z,3.22
2023-04-02T09:25:07.045Z,5.13
2023-04-02T09:27:41.145Z,4.65
2023-04-02T09:30:20.205Z,5.38
2023-04-02T09:32:54.702Z,2.95
2023-04-02T09:35:30.364Z,4.22
2023-04-02T09:38:19.278Z,3.58
2023-04-02T09:40:53.666Z,2.42
2023-04-02T09:43:28.291Z,3.75
2023-04-02T09:46:02.618Z,3.03
2023-04-02T09:48:38.591Z,6.32
2023-04-02T09:51:16.818Z,4.30
2023-04-02T09:53:51.343Z,3.80
2023-04-02T09:56:27.403Z,1.92
2023-04-02T09:59:06.675Z,3.70
2023-04-02T10:01:41.457Z,3.45
2023-04-02T10:04:30.247Z,2.13
2023-04-02T10:07:06.312Z,1.88
2023-04-02T10:09:40.810Z,1.20
2023-04-02T10:12:16.832Z,2.63
2023-04-02T10:14:51.644Z,2.10
2023-04-02T10:17:28.409Z,3.13
2023-04-02T10:20:06.297Z,2.45
2023-04-02T10:22:42.082Z,2.97
2023-04-02T10:25:16.386Z,3.00
2023-04-02T10:27:53.486Z,3.42
2023-04-02T10:30:28.865Z,2.30
2023-04-02T10:33:05.682Z,2.65
2023-04-02T10:35:43.088Z,2.25
2023-04-02T10:38:24.058Z,2.42
2023-04-02T10:40:59.775Z,2.95
2023-04-02T10:43:41.209Z,2.13
2023-04-02T10:46:20.076Z,3.15
2023-04-02T10:48:57.410Z,3.58
2023-04-02T10:51:38.468Z,4.97
2023-04-02T10:54:28.936Z,3.33
2023-04-02T10:57:08.617Z,2.63
2023-04-02T10:59:46.212Z,2.97
2023-04-02T11:02:34.453Z,2.28
2023-04-02T11:05:15.976Z,3.25
2023-04-02T11:07:54.092Z,2.00
2023-04-02T11:10:27.972Z,2.58
2023-04-02T11:13:05.111Z,4.05
2023-04-02T11:15:39.028Z,3.17
2023-04-02T11:18:24.013Z,2.63
2023-04-02T11:20:59.660Z,1.90
2023-04-02T11:23:35.570Z,2.25
2023-04-02T11:26:30.591Z,2.35
2023-04-02T11:29:11.232Z,2.63
2023-04-02T11:31:46.368Z,2.67
2023-04-02T11:34:35.322Z,5.15
2023-04-02T11:37:10.462Z,3.40
2023-04-02T11:42:25.177Z,4.68
2023-04-02T11:45:31.149Z,1.27
2023-04-02T11:48:26.355Z,2.20
2023-04-02T11:51:05.850Z,3.88
2023-04-02T11:53:44.747Z,5.03
2023-04-02T11:56:21.279Z,2.88
2023-04-02T11:59:05.685Z,2.75
2023-04-02T12:01:54.741Z,3.27
2023-04-02T12:04:47.427Z,2.45
2023-04-02T12:07:47.221Z,2.17
2023-04-02T12:10:22.579Z,1.92
2023-04-02T12:12:56.610Z,3.28
2023-04-02T12:15:39.657Z,3.40
2023-04-02T12:18:17.460Z,2.88
2023-04-02T12:20:52.874Z,2.63
2023-04-02T12:23:29.611Z,2.47
2023-04-02T12:26:06.604Z,3.97
2023-04-02T12:28:42.549Z,1.92
2023-04-02T12:31:18.154Z,4.20
2023-04-02T12:33:54.820Z,2.70
2023-04-02T12:36:29.345Z,3.10
2023-04-02T12:39:03.242Z,4.97
2023-04-02T12:41:37.899Z,3.08
2023-04-02T12:44:15.843Z,3.10
2023-04-02T12:46:50.940Z,3.10
2023-04-02T12:49:33.268Z,2.13
2023-04-02T12:52:07.925Z,2.80
2023-04-02T12:54:46.135Z,2.40
2023-04-02T12:57:24.405Z,2.00
2023-04-02T12:59:58.353Z,4.43
2023-04-02T13:02:33.439Z,1.73
2023-04-02T13:05:11.318Z,4.75
2023-04-02T13:07:48.654Z,2.95
2023-04-02T13:10:26.747Z,3.75
2023-04-02T13:13:02.526Z,3.00
2023-04-02T13:15:38.623Z,4.10
2023-04-02T13:18:20.749Z,3.80
2023-04-02T13:20:59.937Z,3.70
2023-04-02T13:23:35.340Z,4.30
2023-04-02T13:26:16.719Z,1.40
2023-04-02T13:29:01.591Z,2.53
2023-04-02T13:31:36.137Z,2.95
2023-04-02T13:34:10.603Z,3.08
2023-04-02T13:36:45.988Z,4.35
2023-04-02T13:39:20.790Z,2.38
2023-04-02T13:41:56.875Z,3.03
2023-04-02T13:44:30.502Z,3.35
2023-04-02T13:47:03.229Z,2.97
2023-04-02T13:49:36.224Z,2.47
2023-04-02T13:52:14.624Z,3.38
2023-04-02T13:54:49.205Z,3.78
2023-04-02T13:57:22.405Z,3.10
2023-04-02T13:59:55.050Z,2.17
2023-04-02T14:02:27.713Z,3.15
2023-04-02T14:05:06.581Z,4.63
2023-04-02T14:07:47.995Z,2.42
2023-04-02T14:10:23.738Z,2.88
2023-04-02T14:13:03.712Z,2.47
2023-04-02T14:15:48.082Z,2.38
2023-04-02T14:18:28.603Z,3.03
2023-04-02T14:21:06.780Z,1.42
2023-04-02T14:23:46.661Z,1.27
2023-04-02T14:26:26.231Z,1.20
2023-04-02T14:29:04.229Z,2.92
2023-04-02T14:31:38.484Z,2.05
2023-04-02T14:34:16.517Z,3.53
2023-04-02T14:36:57.460Z,2.78
2023-04-02T14:39:38.624Z,2.97
2023-04-02T14:42:15.582Z,1.42
2023-04-02T14:44:51.033Z,2.38
2023-04-02T14:47:26.113Z,3.35
2023-04-02T14:50:02.222Z,1.85
2023-04-02T14:52:36.061Z,3.20
2023-04-02T14:55:15.250Z,3.33
2023-04-02T14:57:52.329Z,0.95
2023-04-02T15:00:31.580Z,2.88
2023-04-02T15:03:13.202Z,1.60
2023-04-02T15:05:49.826Z,3.35
2023-04-02T15:08:26.070Z,2.58
2023-04-02T15:11:08.043Z,1.77
2023-04-02T15:13:50.691Z,3.20
2023-04-02T15:16:26.608Z,1.98
2023-04-02T15:19:07.637Z,1.88
2023-04-02T15:21:57.552Z,1.40
2023-04-02T15:27:25.143Z,4.70
2023-04-02T15:30:04.330Z,1.92
2023-04-02T15:32:38.450Z,2.38
2023-04-02T15:35:17.614Z,3.90
2023-04-02T15:37:55.542Z,2.35
2023-04-02T15:40:33.929Z,3.83
2023-04-02T15:43:15.329Z,3.45
2023-04-02T15:45:51.867Z,2.10
2023-04-02T15:48:36.134Z,2.10
2023-04-02T15:51:14.408Z,1.98
2023-04-02T15:53:50.078Z,3.50
2023-04-02T15:56:41.330Z,1.08
2023-04-02T15:59:31.630Z,2.70
2023-04-02T16:02:13.924Z,1.33
2023-04-02T16:04:54.800Z,2.80
2023-04-02T16:07:40.632Z,2.60
2023-04-02T16:10:30.328Z,1.85
2023-04-02T16:13:15.799Z,2.75
2023-04-02T16:15:52.561Z,1.30
2023-04-02T16:18:29.519Z,3.85
2023-04-02T16:21:03.728Z,2.78
2023-04-02T16:23:37.352Z,2.13
2023-04-02T16:26:21.827Z,1.90
2023-04-02T16:28:59.802Z,1.65
2023-04-02T16:31:37.511Z,2.90
2023-04-02T16:34:20.153Z,3.03
2023-04-02T16:36:57.378Z,3.15
2023-04-02T16:39:34.956Z,3.22
2023-04-02T16:42:16.041Z,3.83
2023-04-02T16:44:55.831Z,1.67
2023-04-02T16:47:38.873Z,6.07
2023-04-02T16:50:20.026Z,2.55
2023-04-02T16:52:58.788Z,1.48
2023-04-02T16:55:37.668Z,3.78
2023-04-02T16:58:18.871Z,2.00
2023-04-02T17:00:53.754Z,3.58
2023-04-02T17:03:37.900Z,2.45
2023-04-02T17:06:16.938Z,2.03
2023-04-02T17:08:55.245Z,3.28
2023-04-02T17:11:31.460Z,3.33
2023-04-02T17:14:06.696Z,2.40
2023-04-02T17:16:42.797Z,3.10
2023-04-02T17:19:18.795Z,2.03
2023-04-02T17:21:53.635Z,2.53
2023-04-02T17:24:27.785Z,1.70
2023-04-02T17:27:01.662Z,2.58
2023-04-02T17:29:36.526Z,2.63
2023-04-02T17:32:15.763Z,2.97
2023-04-02T17:34:53.121Z,2.70
2023-04-02T17:37:31.687Z,2.40
2023-04-02T17:40:08.916Z,2.17
2023-04-02T17:42:49.108Z,4.15
2023-04-02T17:45:25.225Z,3.03
2023-04-02T17:48:01.549Z,3.13
2023-04-02T17:50:39.425Z,4.32
2023-04-02T17:53:19.120Z,2.38
2023-04-02T17:55:56.080Z,2.97
2023-04-02T17:58:50.614Z,3.30
2023-04-02T18:01:27.932Z,2.87
2023-04-02T18:04:05.853Z,4.40
2023-04-02T18:06:43.773Z,4.78
2023-04-02T18:09:24.357Z,3.28
2023-04-02T18:12:03.843Z,3.42
2023-04-02T18:14:40.664Z,2.20
2023-04-02T18:17:18.210Z,3.45
2023-04-02T18:19:55.459Z,2.60
2023-04-02T18:22:43.184Z,2.25
2023-04-02T18:25:33.031Z,4.70
2023-04-02T18:28:14.969Z,2.92
2023-04-02T18:30:51.606Z,2.65
2023-04-02T18:33:59.511Z,2.42
2023-04-02T18:36:37.724Z,3.42
2023-04-02T18:39:16.366Z,2.20
2023-04-02T18:41:53.878Z,4.68
2023-04-02T18:44:44.670Z,4.25
2023-04-02T18:47:22.395Z,3.33
2023-04-02T18:49:57.947Z,3.22
2023-04-02T18:52:36.641Z,3.60
2023-04-02T18:55:15.482Z,3.55
2023-04-02T18:57:52.225Z,2.88
2023-04-02T19:00:28.477Z,2.13
2023-04-02T19:03:03.884Z,3.22
2023-04-02T19:06:02.813Z,3.35
2023-04-02T19:08:39.243Z,2.63
2023-04-02T19:11:32.063Z,4.63
2023-04-02T19:14:12.784Z,3.42
2023-04-02T19:16:51.441Z,3.38
2023-04-02T19:19:26.428Z,3.95
2023-04-02T19:22:22.171Z,6.18
2023-04-02T19:25:05.577Z,4.57
2023-04-02T19:27:50.253Z,3.50
2023-04-02T19:30:40.919Z,3.83
2023-04-02T19:33:17.585Z,4.57
2023-04-02T19:36:00.455Z,6.10
2023-04-02T19:38:47.379Z,6.65
2023-04-02T19:41:26.109Z,3.20
2023-04-02T19:44:00.345Z,5.30
2023-04-02T19:46:33.085Z,3.90
2023-04-02T19:49:28.233Z,4.00
2023-04-02T19:52:01.041Z,4.45
2023-04-02T19:54:34.144Z,4.13
2023-04-02T19:57:25.980Z,4.53
2023-04-02T19:59:59.964Z,4.30
2023-04-02T20:02:33.497Z,3.20
2023-04-02T20:05:06.593Z,3.60
2023-04-02T20:07:39.707Z,6.88
2023-04-02T20:10:12.738Z,4.18
2023-04-02T20:12:45.416Z,6.93
2023-04-02T20:15:20.285Z,3.83
2023-04-02T20:20:25.588Z,3.28
2023-04-02T20:22:58.361Z,4.88
2023-04-02T20:25:30.991Z,7.07
2023-04-02T20:28:03.982Z,4.72
2023-04-02T20:30:38.349Z,4.57
2023-04-02T20:33:11.467Z,3.25
2023-04-02T20:35:44.351Z,6.28
2023-04-02T20:38:36.782Z,4.40
2023-04-02T20:41:19.030Z,3.97
2023-04-02T20:43:52.011Z,4.93
2023-04-02T20:46:26.356Z,4.35
2023-04-02T20:48:59.038Z,4.47
2023-04-02T20:51:32.303Z,4.00
2023-04-02T20:54:05.591Z,2.92
2023-04-02T20:56:38.426Z,8.38
2023-04-02T20:59:11.353Z,4.22
2023-04-02T21:01:45.487Z,8.90
2023-04-02T21:04:18.450Z,28.93
2023-04-02T21:06:56.658Z,17.85
2023-04-02T21:09:29.452Z,17.85
2023-04-02T21:12:02.389Z,13.07
2023-04-02T21:14:38.300Z,11.50
2023-04-02T21:17:12.415Z,18.48
2023-04-02T21:19:45.067Z,11.57
2023-04-02T21:22:17.812Z,10.63
2023-04-02T21:24:50.409Z,8.50
2023-04-02T21:27:25.696Z,10.68
2023-04-02T21:29:58.274Z,7.95
2023-04-02T21:32:32.970Z,8.73
2023-04-02T21:37:38.368Z,8.23
2023-04-02T21:40:11.305Z,5.38
2023-04-02T21:42:44.227Z,6.63
2023-04-02T21:45:16.889Z,5.53
2023-04-02T21:47:51.510Z,6.05
2023-04-02T21:50:24.134Z,5.55
2023-04-02T21:52:56.817Z,5.80
2023-04-02T21:55:29.489Z,5.90
2023-04-02T21:58:02.087Z,5.68
2023-04-02T22:00:34.997Z,4.07
2023-04-02T22:03:11.741Z,5.13
2023-04-02T22:05:46.284Z,4.32
2023-04-02T22:08:18.855Z,4.82
2023-04-02T22:10:51.558Z,6.70
2023-04-02T22:13:24.308Z,6.63
2023-04-02T22:16:00.364Z,4.50
2023-04-02T22:18:34.301Z,5.13
2023-04-02T22:21:07.651Z,5.78
2023-04-02T22:23:40.703Z,5.88
2023-04-02T22:26:14.050Z,6.97
2023-04-02T22:28:46.961Z,5.25
2023-04-02T22:31:21.387Z,6.30
2023-04-02T22:33:56.179Z,6.07
2023-04-02T22:36:29.439Z,3.63
2023-04-02T22:39:05.302Z,4.65
2023-04-02T22:41:38.294Z,3.78
2023-04-02T22:44:13.844Z,4.05
2023-04-02T22:46:46.454Z,4.00
2023-04-02T22:49:20.437Z,4.82
2023-04-02T22:51:53.186Z,3.35
2023-04-02T22:54:25.788Z,2.88
2023-04-02T22:56:58.642Z,4.50
2023-04-02T22:59:43.260Z,3.63
2023-04-02T23:02:34.449Z,3.20
2023-04-02T23:05:08.885Z,3.22
2023-04-02T23:07:41.542Z,4.20
2023-04-02T23:10:14.121Z,3.35
2023-04-02T23:12:47.065Z,2.47
2023-04-02T23:15:19.666Z,2.90
2023-04-02T23:17:52.317Z,2.70
2023-04-02T23:20:26.845Z,5.80
2023-04-02T23:23:17.990Z,4.75
2023-04-02T23:25:50.807Z,4.75
2023-04-02T23:28:23.374Z,5.85
2023-04-02T23:30:58.861Z,9.73
2023-04-02T23:33:31.525Z,4.40
2023-04-02T23:36:12.649Z,5.13
2023-04-02T23:38:45.555Z,4.88
2023-04-02T23:41:18.583Z,3.65
2023-04-02T23:43:51.775Z,4.47
2023-04-02T23:46:24.958Z,4.88
2023-04-02T23:48:57.840Z,3.78
2023-04-02T23:51:32.223Z,4.80
2023-04-02T23:54:04.913Z,6.60
2023-04-02T23:56:38.756Z,5.00
2023-04-02T23:59:11.346Z,4.57
